Aeroporto :
LOGIN :

Iscrizione | Disclaimer

   EN    FR    IT 

 










Sommario :    VFR   VFR Marginale   IFR   IFR Intensivo   IFR Molto Intensivo
Visibilità : 
Base nubi : 
>= 8 km
>= 3000ft
5 / 8 km
1000 / 3000 ft
1500m / 5 km
500 / 1000 ft
800 / 1500m
200 / 500 ft
< 800m
< 200 ft
Simboli :   Temporali  Nebbia  Neve Forte  Precipitazioni Forti  Vento > 20 kt
SIGMETs :   Varie  Temporali  Ghiacco  Turbolenza  Onda orograficha  Ceneri Vulcaniche






- Altitudine del aeroporto : 146 ft
- Codice IATA : RKE


EKRK - Roskilde Tune

ULTIMO METAR :
  • 021550Z AUTO 25024G36KT 9999 OVC028/// 08/02 Q0997

METARs OBSOLETI :
  • 021520Z AUTO 26026G38KT 220V280 9999 OVC029/// 08/03 Q0998
  • 021450Z AUTO 26027G43KT 9999 OVC034/// 09/02 Q0997
  • 021420Z AUTO 25024G40KT 9999 OVC037/// 09/01 Q0998
  • 021350Z AUTO 26025G40KT 220V280 9999 OVC037/// 09/01 Q0999
  • 021320Z AUTO 25020KT 9999 OVC037/// 09/02 Q0999

TAF TAF EKRK
Valido dal 02 a 15 ore il 03 a 00 ore UTC


021421Z 0215/0224 26022KT 9999 BKN020
TEMPO 0215/0218 27025G42KT 4000 SHRA BKN012TCU
TEMPO 0218/0224 27020G30KT 4000 SHRA BKN012TCU



MetMap, La meteo Aeronautica in un colpo d'occhio ! - Copyright ORBIFLY Dicembre 2007 - Disclaimer

ORBIFLY MET'MAP TEAM :

Programmazione e sviluppo : Alexandra Zaïnal
Concezione : Baudouin d'Aumeries
Aiuto per la programmazione : Marc-Olivier Méhu
Supporto tecnico e logistico : Manuel Goepfert
Aiuto per la traduzione : Arnaldo La Scala

Contatto : metmap@orbifly.com




FONTI E CREDITI :

   NOAA